LICA/SUF METAR and TAF weather

Enter ICAO airport designator
Station Type Date Time Source
LICA METAR 2020/03/28 14:50 UTC NOAA

LICA 281450Z 25011KT 9999 FEW020 15/10 Q1012


Station Type Date Time Source
LICA Decoded METAR 2020/03/28 14:50 UTC NOAA

Lamezia Terme, Italy (LICA) 38-54N 016-15E
Mar 28, 2020 - 10:50 AM EDT / 2020.03.28 1450 UTC
Wind: from the WSW (250 degrees) at 13 MPH (11 KT):0
Visibility: greater than 7 mile(s):0
Sky conditions: mostly clear
Temperature: 59 F (15 C)
Dew Point: 50 F (10 C)
Relative Humidity: 72%
Pressure (altimeter): 29.88 in. Hg (1012 hPa)
ob: LICA 281450Z 25011KT 9999 FEW020 15/10 Q1012
cycle: 15

Station Type Date Time Source
LICA TAF 2020/03/28 12:21 UTC NOAA

TAF LICA 281100Z 2812/2912 VRB05KT 9999 SCT025
TEMPO 2812/2818 SHRA

Example: see airport list